Time;durP1;ratioP1;P1;durP2;ratioP2;P2;SDS_P1;SDS_P2;PMS_P1;PMS_P2;Temp;Humidity;BMP_temperature;BMP_pressure;BME280_temperature;BME280_humidity;BME280_pressure;Samples;Min_cycle;Max_cycle;Signal;HPM_P1;HPM_P2
2021/08/31 00:01:35;;;;;;;6.65;4.50;;;;;;;15.92;48.47;93876.50;4974108;28;20393;-78
2021/08/31 00:04:00;;;;;;;7.65;4.30;;;;;;;15.92;48.23;93871.13;4970319;28;20050;-77
2021/08/31 00:06:26;;;;;;;6.47;3.92;;;;;;;15.86;48.37;93851.03;4975301;28;20889;-78
2021/08/31 00:08:51;;;;;;;6.20;4.20;;;;;;;15.80;48.87;93869.28;4974693;28;20439;-77
2021/08/31 00:11:17;;;;;;;6.20;4.10;;;;;;;15.81;48.91;93862.81;4973546;28;20030;-77
2021/08/31 00:13:42;;;;;;;7.90;3.53;;;;;;;15.93;48.43;93874.59;4974670;28;20527;-77
2021/08/31 00:16:08;;;;;;;4.75;4.03;;;;;;;15.95;48.14;93878.47;4974454;28;20154;-77
2021/08/31 00:18:33;;;;;;;8.18;3.70;;;;;;;15.90;47.48;93857.28;4975057;28;20138;-77
2021/08/31 00:20:59;;;;;;;5.43;3.30;;;;;;;15.85;48.26;93868.25;4976225;28;20041;-77
2021/08/31 00:23:24;;;;;;;5.65;4.32;;;;;;;15.71;48.36;93859.84;4974428;28;20089;-78
2021/08/31 00:25:52;;;;;;;8.15;3.97;;;;;;;15.72;48.02;93846.09;4978069;28;20042;-78
2021/08/31 00:28:20;;;;;;;6.18;4.13;;;;;;;15.86;48.58;93872.50;4970925;28;20565;-77
2021/08/31 00:30:46;;;;;;;7.93;3.65;;;;;;;15.92;48.25;93870.34;4986405;28;20038;-77
2021/08/31 00:33:11;;;;;;;4.40;3.70;;;;;;;16.00;47.33;93872.84;4975272;28;20042;-77
2021/08/31 00:35:36;;;;;;;10.48;4.30;;;;;;;15.86;48.03;93872.50;4969502;28;20026;-77
2021/08/31 00:38:02;;;;;;;5.38;4.00;;;;;;;15.87;47.75;93869.47;4976379;28;20053;-77
2021/08/31 00:40:27;;;;;;;4.80;4.32;;;;;;;15.89;47.80;93877.16;4973915;28;20800;-77
2021/08/31 00:42:53;;;;;;;5.97;3.88;;;;;;;15.86;48.07;93885.91;4964235;28;20035;-76
2021/08/31 00:45:18;;;;;;;13.02;5.15;;;;;;;15.91;48.10;93885.66;4974598;28;20042;-78
2021/08/31 00:47:44;;;;;;;6.47;4.70;;;;;;;15.59;48.77;93865.28;4975596;28;20389;-78
2021/08/31 00:50:10;;;;;;;5.45;4.00;;;;;;;16.02;48.17;93883.25;4967607;28;20053;-78
2021/08/31 00:52:39;;;;;;;6.35;3.97;;;;;;;15.79;48.52;93888.41;4978025;28;20034;-78
2021/08/31 00:55:06;;;;;;;5.93;4.70;;;;;;;15.60;49.48;93891.72;4971784;28;20512;-77
2021/08/31 00:57:32;;;;;;;5.32;4.25;;;;;;;15.52;49.41;93883.84;4971319;28;20401;-78
2021/08/31 00:59:58;;;;;;;6.50;4.35;;;;;;;15.42;49.19;93864.44;4969240;28;20066;-77
2021/08/31 01:02:24;;;;;;;6.25;4.03;;;;;;;15.41;49.30;93883.50;4979397;28;20503;-77
2021/08/31 01:04:50;;;;;;;6.95;4.53;;;;;;;15.40;49.76;93881.97;4970001;28;20026;-78
2021/08/31 01:07:15;;;;;;;4.32;3.90;;;;;;;15.31;49.46;93874.06;4971452;28;20042;-78
2021/08/31 01:09:42;;;;;;;5.38;4.18;;;;;;;15.23;49.96;93883.03;4976013;28;20136;-78
2021/08/31 01:12:08;;;;;;;4.43;3.78;;;;;;;15.31;49.57;93884.00;4971343;28;20520;-77
2021/08/31 01:14:33;;;;;;;5.45;3.80;;;;;;;15.28;49.44;93877.44;4972748;28;20264;-78
2021/08/31 01:16:59;;;;;;;8.98;4.03;;;;;;;15.25;49.68;93886.16;4969695;28;20531;-78
2021/08/31 01:19:31;;;;;;;5.90;3.78;;;;;;;15.14;50.44;93884.28;4974366;28;20034;-79
2021/08/31 01:22:07;;;;;;;7.63;3.67;;;;;;;15.28;49.70;93890.84;4974126;28;20054;-79
2021/08/31 01:24:33;;;;;;;6.70;4.30;;;;;;;15.31;49.48;93890.13;4973635;28;20049;-77
2021/08/31 01:26:59;;;;;;;3.97;3.33;;;;;;;15.30;49.53;93877.09;4973816;28;20393;-77
2021/08/31 01:29:27;;;;;;;5.70;4.15;;;;;;;15.36;49.72;93886.44;4972418;28;20674;-79
2021/08/31 01:31:53;;;;;;;5.53;3.65;;;;;;;15.15;49.64;93878.59;4976853;28;20042;-79
2021/08/31 01:34:18;;;;;;;5.88;3.88;;;;;;;15.34;49.59;93894.84;4974115;28;20049;-78
2021/08/31 01:36:44;;;;;;;6.28;4.78;;;;;;;15.35;49.33;93885.66;4974919;28;20482;-78
2021/08/31 01:39:09;;;;;;;7.00;4.00;;;;;;;15.43;49.37;93887.44;4973186;28;20676;-78
2021/08/31 01:41:35;;;;;;;5.90;3.80;;;;;;;15.26;49.26;93860.13;4978499;28;20039;-78
2021/08/31 01:44:00;;;;;;;6.88;3.63;;;;;;;15.06;49.62;93891.31;4972833;28;20030;-78
2021/08/31 01:46:30;;;;;;;4.20;3.70;;;;;;;15.14;49.68;93893.09;4973899;28;20042;-77
2021/08/31 01:48:55;;;;;;;5.35;3.95;;;;;;;15.21;49.79;93903.22;4975850;28;20145;-78
2021/08/31 01:51:21;;;;;;;8.63;4.68;;;;;;;15.26;49.56;93903.78;4972057;28;20076;-78
2021/08/31 01:53:46;;;;;;;6.43;4.78;;;;;;;15.18;50.02;93901.25;4971913;28;20792;-79
2021/08/31 01:56:12;;;;;;;4.22;3.53;;;;;;;15.07;50.12;93882.19;4972704;28;20026;-78
2021/08/31 01:58:37;;;;;;;5.78;3.45;;;;;;;15.12;49.85;93889.97;4970673;28;20425;-79
2021/08/31 02:01:03;;;;;;;7.30;3.70;;;;;;;15.11;49.75;93896.44;4971514;28;20096;-78
2021/08/31 02:03:28;;;;;;;7.30;4.25;;;;;;;14.98;50.16;93885.00;4973126;28;20037;-77
2021/08/31 02:05:54;;;;;;;8.30;4.78;;;;;;;14.91;50.43;93876.00;4973247;28;20034;-78
2021/08/31 02:08:19;;;;;;;4.30;3.08;;;;;;;15.06;50.23;93887.91;4974024;28;20666;-77
2021/08/31 02:10:45;;;;;;;6.50;4.50;;;;;;;14.94;50.40;93886.78;4971138;28;20456;-77
2021/08/31 02:13:11;;;;;;;6.80;3.90;;;;;;;14.76;50.74;93869.44;4969445;28;20125;-77
2021/08/31 02:15:37;;;;;;;7.40;4.10;;;;;;;14.99;50.31;93878.53;4991043;28;20042;-78
2021/08/31 02:18:03;;;;;;;5.47;4.20;;;;;;;14.97;50.23;93874.63;4974730;28;20034;-78
2021/08/31 02:20:29;;;;;;;6.63;3.95;;;;;;;15.03;50.51;93873.25;4970756;28;20088;-78
2021/08/31 02:22:54;;;;;;;8.32;4.53;;;;;;;14.90;50.40;93866.41;4975998;28;20624;-78
2021/08/31 02:25:20;;;;;;;4.82;3.30;;;;;;;14.94;50.46;93886.00;4973060;28;20045;-77
2021/08/31 02:27:45;;;;;;;7.32;3.88;;;;;;;14.86;50.47;93884.25;4970857;28;20591;-79
2021/08/31 02:30:12;;;;;;;6.70;4.30;;;;;;;14.99;50.37;93885.78;4976858;28;20050;-78
2021/08/31 02:32:37;;;;;;;4.35;3.70;;;;;;;14.98;50.58;93889.56;4974833;28;20062;-78
2021/08/31 02:35:03;;;;;;;5.13;3.33;;;;;;;14.98;50.57;93886.91;4969736;28;20121;-78
2021/08/31 02:37:29;;;;;;;6.93;3.75;;;;;;;14.96;50.52;93887.22;4978413;28;20025;-77
2021/08/31 02:39:54;;;;;;;4.90;4.00;;;;;;;14.81;50.94;93887.16;4971106;28;20038;-77
2021/08/31 02:42:20;;;;;;;7.97;3.67;;;;;;;14.66;51.04;93887.84;4972582;28;20045;-78
2021/08/31 02:44:45;;;;;;;5.78;3.92;;;;;;;14.61;51.64;93888.84;4974064;28;20034;-78
2021/08/31 02:47:10;;;;;;;6.28;4.32;;;;;;;14.81;51.25;93897.88;4975586;28;20153;-78
2021/08/31 02:49:36;;;;;;;4.68;3.80;;;;;;;14.46;52.14;93887.63;4973258;28;20424;-78
2021/08/31 02:52:02;;;;;;;5.63;3.75;;;;;;;14.29;52.59;93901.19;4973187;28;20488;-77
2021/08/31 02:54:27;;;;;;;7.50;4.68;;;;;;;14.44;52.74;93903.22;4975112;28;20112;-78
2021/08/31 02:56:53;;;;;;;5.43;4.40;;;;;;;14.30;52.67;93885.94;4973846;28;20039;-78
2021/08/31 02:59:18;;;;;;;5.50;4.40;;;;;;;14.39;52.88;93918.69;4973494;28;20527;-78
2021/08/31 03:04:22;;;;;;;5.95;3.83;;;;;;;14.19;53.57;93909.66;4972437;28;20050;-77
2021/08/31 03:06:47;;;;;;;6.47;4.40;;;;;;;14.51;52.99;93911.47;4974277;28;20027;-78
2021/08/31 03:09:13;;;;;;;9.75;4.28;;;;;;;14.39;52.80;93914.13;4971496;28;20141;-79
2021/08/31 03:11:38;;;;;;;6.45;4.35;;;;;;;14.13;53.47;93905.66;4972546;28;20121;-79
2021/08/31 03:14:03;;;;;;;4.47;4.05;;;;;;;14.08;53.79;93913.91;4971608;28;20038;-79
2021/08/31 03:16:29;;;;;;;9.02;4.93;;;;;;;13.97;54.27;93907.41;4974689;28;20109;-78
2021/08/31 03:18:54;;;;;;;10.52;4.95;;;;;;;14.19;53.85;93926.47;4974323;28;20129;-78
2021/08/31 03:21:19;;;;;;;6.60;4.88;;;;;;;14.15;53.58;93908.75;4972683;28;20038;-78
2021/08/31 03:23:45;;;;;;;5.20;4.15;;;;;;;14.27;53.58;93916.81;4970751;28;20584;-78
2021/08/31 03:26:10;;;;;;;7.85;4.50;;;;;;;14.32;53.65;93929.97;4974494;28;20027;-78
2021/08/31 03:28:36;;;;;;;6.97;4.55;;;;;;;14.26;53.48;93933.19;4972377;28;20366;-78
2021/08/31 03:31:01;;;;;;;4.75;3.63;;;;;;;14.17;53.47;93911.91;4972813;28;20042;-77
2021/08/31 03:33:27;;;;;;;6.10;4.38;;;;;;;14.15;53.79;93914.13;4971317;28;20425;-79
2021/08/31 03:35:52;;;;;;;8.32;4.45;;;;;;;14.20;53.21;93913.91;4969941;28;20038;-77
2021/08/31 03:38:19;;;;;;;11.25;4.95;;;;;;;14.30;53.35;93937.53;4973837;28;20035;-78
2021/08/31 03:40:44;;;;;;;9.98;4.25;;;;;;;13.99;53.34;93883.78;4974219;28;20030;-77
2021/08/31 03:43:10;;;;;;;6.07;4.68;;;;;;;14.24;52.92;93925.50;4978237;28;20505;-77
2021/08/31 03:45:35;;;;;;;5.15;4.47;;;;;;;14.22;53.42;93927.72;4972333;28;20037;-77
2021/08/31 03:48:00;;;;;;;8.48;5.63;;;;;;;14.29;53.41;93929.84;4974204;28;20389;-78
2021/08/31 03:50:26;;;;;;;6.85;4.75;;;;;;;14.09;53.58;93918.09;4971794;28;20049;-77
2021/08/31 03:52:51;;;;;;;6.22;4.72;;;;;;;14.26;53.13;93938.53;4971359;28;20034;-77
2021/08/31 03:55:16;;;;;;;8.45;5.65;;;;;;;14.14;53.35;93929.38;4972787;28;20042;-77
2021/08/31 03:57:42;;;;;;;8.18;4.68;;;;;;;14.32;53.25;93945.25;4972315;28;20393;-77
2021/08/31 04:00:08;;;;;;;11.00;5.72;;;;;;;14.17;53.72;93935.97;4973533;28;20097;-78
2021/08/31 04:02:33;;;;;;;10.55;4.47;;;;;;;14.24;53.45;93933.50;4972574;28;20042;-79
2021/08/31 04:04:58;;;;;;;7.72;4.07;;;;;;;14.28;53.51;93939.75;4975058;28;20041;-78
2021/08/31 04:07:24;;;;;;;6.78;5.28;;;;;;;14.27;53.47;93938.22;4969622;28;20102;-78
2021/08/31 04:09:50;;;;;;;6.78;4.18;;;;;;;14.36;53.50;93935.44;4972990;28;20512;-77
2021/08/31 04:12:16;;;;;;;8.30;4.38;;;;;;;14.25;53.36;93929.72;4971645;28;20802;-77
2021/08/31 04:14:46;;;;;;;6.20;4.22;;;;;;;14.25;53.81;93924.38;4973242;28;20053;-78
2021/08/31 04:17:12;;;;;;;7.07;4.45;;;;;;;14.18;53.96;93924.13;4973775;28;20030;-78
2021/08/31 04:19:38;;;;;;;5.05;4.55;;;;;;;14.11;54.01;93923.91;4978021;28;20627;-77
2021/08/31 04:22:04;;;;;;;11.20;4.35;;;;;;;14.33;54.04;93947.56;4975137;28;20040;-78
2021/08/31 04:24:29;;;;;;;9.95;5.45;;;;;;;14.25;53.97;93939.66;4969214;28;20046;-78
2021/08/31 04:26:55;;;;;;;7.53;5.43;;;;;;;14.29;54.91;93925.28;4977269;28;20034;-78
2021/08/31 04:29:20;;;;;;;9.15;5.18;;;;;;;14.56;54.42;93930.00;4976166;28;20072;-77
2021/08/31 04:31:46;;;;;;;9.95;5.55;;;;;;;14.37;55.10;93929.75;4977702;28;20053;-77
2021/08/31 04:34:11;;;;;;;8.00;5.55;;;;;;;14.37;55.08;93927.09;4974007;28;20441;-78
2021/08/31 04:36:36;;;;;;;8.57;5.30;;;;;;;14.45;54.88;93936.88;4972644;28;20644;-78
2021/08/31 04:39:02;;;;;;;9.52;6.18;;;;;;;14.61;55.06;93955.78;4975940;28;20101;-78
2021/08/31 04:41:28;;;;;;;10.52;6.18;;;;;;;14.73;54.71;93954.97;4976877;28;20042;-78
2021/08/31 04:43:53;;;;;;;9.07;5.53;;;;;;;14.91;54.15;93956.31;4973011;28;20065;-77
2021/08/31 04:46:19;;;;;;;12.32;7.63;;;;;;;14.75;55.02;93958.91;4974835;28;20413;-79
2021/08/31 04:48:44;;;;;;;10.88;6.68;;;;;;;14.81;53.93;93956.78;4977201;28;20030;-78
2021/08/31 04:51:09;;;;;;;12.15;7.05;;;;;;;15.06;53.50;93957.53;4970273;28;20045;-78
2021/08/31 04:53:35;;;;;;;14.02;7.05;;;;;;;14.97;53.56;93936.22;4976190;28;20714;-77
2021/08/31 04:56:00;;;;;;;13.80;7.18;;;;;;;15.28;52.71;93965.06;4978412;28;20084;-78
2021/08/31 04:58:26;;;;;;;12.18;5.93;;;;;;;15.30;51.79;93958.25;4974388;28;20073;-77
2021/08/31 05:00:51;;;;;;;9.65;7.30;;;;;;;15.44;51.92;93965.97;4976697;28;20096;-77
2021/08/31 05:03:16;;;;;;;12.25;6.63;;;;;;;15.46;51.29;93953.00;4969178;28;20041;-77
2021/08/31 05:05:42;;;;;;;10.95;7.28;;;;;;;15.43;51.42;93965.16;4972392;28;20034;-77
2021/08/31 05:08:08;;;;;;;11.40;7.10;;;;;;;15.48;51.37;93960.69;4974228;28;20070;-78
2021/08/31 05:10:34;;;;;;;11.10;6.97;;;;;;;15.46;51.67;93939.59;4976335;28;20093;-78
2021/08/31 05:12:59;;;;;;;10.38;7.10;;;;;;;15.69;51.64;93962.09;4973436;28;20125;-78
2021/08/31 05:15:24;;;;;;;14.57;8.07;;;;;;;15.66;51.46;93943.19;4990267;28;20030;-78
2021/08/31 05:17:50;;;;;;;11.15;7.30;;;;;;;15.79;51.26;93950.09;4976722;28;20050;-79
2021/08/31 05:20:18;;;;;;;12.50;7.50;;;;;;;15.92;49.91;93940.88;4986022;28;20131;-79
2021/08/31 05:22:43;;;;;;;12.70;9.32;;;;;;;15.92;50.18;93940.06;4975513;28;20030;-78
2021/08/31 05:25:09;;;;;;;21.17;9.60;;;;;;;15.93;50.66;93937.06;4973114;28;20182;-78
2021/08/31 05:27:35;;;;;;;15.63;9.30;;;;;;;15.99;50.55;93951.75;4975255;28;21149;-78
2021/08/31 05:30:00;;;;;;;14.50;8.70;;;;;;;15.96;50.58;93949.78;4975088;28;20564;-78
2021/08/31 05:32:26;;;;;;;16.15;9.10;;;;;;;16.23;50.14;93959.66;4974515;28;20416;-77
2021/08/31 05:34:52;;;;;;;18.45;9.27;;;;;;;16.29;50.08;93950.25;4973477;28;20030;-77
2021/08/31 05:37:17;;;;;;;17.20;9.82;;;;;;;16.38;49.91;93944.00;4974036;28;20121;-79
2021/08/31 05:39:43;;;;;;;15.82;9.27;;;;;;;16.33;50.72;93954.97;4974235;28;20046;-78
2021/08/31 05:42:10;;;;;;;20.98;10.27;;;;;;;16.33;49.87;93948.47;4971509;28;20074;-78
2021/08/31 05:44:38;;;;;;;17.48;9.45;;;;;;;16.50;50.13;93949.25;4976713;28;21029;-79
2021/08/31 05:47:04;;;;;;;13.95;9.40;;;;;;;16.60;49.83;93954.09;4972613;28;20147;-79
2021/08/31 05:49:30;;;;;;;19.15;10.57;;;;;;;16.73;50.03;93950.19;4973947;28;20053;-78
2021/08/31 05:51:57;;;;;;;14.15;9.40;;;;;;;16.60;50.29;93954.09;4972650;28;20128;-78
2021/08/31 05:54:26;;;;;;;16.70;9.68;;;;;;;16.68;50.00;93942.41;4976670;28;20053;-78
2021/08/31 05:56:52;;;;;;;19.35;11.05;;;;;;;16.98;49.54;93953.44;4972291;28;20047;-78
2021/08/31 05:59:18;;;;;;;16.70;10.02;;;;;;;16.87;49.91;93958.56;4975841;28;20029;-78
2021/08/31 06:01:44;;;;;;;14.63;10.57;;;;;;;16.95;48.51;93933.44;4972638;28;20520;-78
2021/08/31 06:04:11;;;;;;;12.57;8.98;;;;;;;17.07;49.83;93960.19;4972657;28;20077;-78
2021/08/31 06:06:37;;;;;;;18.15;9.10;;;;;;;17.23;50.03;93959.41;4971518;28;20077;-77
2021/08/31 06:09:12;;;;;;;18.48;10.38;;;;;;;17.08;49.35;93961.75;4973336;28;20121;-78
2021/08/31 06:11:39;;;;;;;14.65;9.57;;;;;;;16.64;49.45;93947.69;4973405;28;20046;-78
2021/08/31 06:14:08;;;;;;;12.68;9.43;;;;;;;17.04;49.12;93952.84;4973925;28;20057;-78
2021/08/31 06:16:34;;;;;;;18.08;9.73;;;;;;;17.27;49.09;93957.56;4973466;28;20026;-77
2021/08/31 06:19:01;;;;;;;22.35;10.32;;;;;;;17.40;48.53;93959.81;4971166;28;20069;-77
2021/08/31 06:21:27;;;;;;;22.75;10.32;;;;;;;17.45;47.42;93951.44;4975522;28;20367;-77
2021/08/31 06:23:52;;;;;;;16.48;8.73;;;;;;;17.54;47.58;93949.34;4971803;28;20047;-77
2021/08/31 06:26:18;;;;;;;14.60;9.45;;;;;;;17.43;47.26;93944.88;4972668;28;20037;-77
2021/08/31 06:28:43;;;;;;;15.20;9.40;;;;;;;17.43;48.37;93959.09;4973203;28;20026;-77
2021/08/31 06:31:09;;;;;;;17.58;9.02;;;;;;;17.72;47.63;93965.84;4970063;28;20491;-77
2021/08/31 06:33:34;;;;;;;16.08;9.38;;;;;;;17.74;46.64;93950.13;4970909;28;20327;-77
2021/08/31 06:35:59;;;;;;;14.32;8.85;;;;;;;17.63;46.96;93934.91;4974121;28;20034;-77
2021/08/31 06:38:25;;;;;;;11.93;7.97;;;;;;;17.78;46.54;93958.25;4974346;28;20050;-78
2021/08/31 06:40:50;;;;;;;11.20;8.88;;;;;;;17.81;47.66;93944.88;4972944;28;20595;-78
2021/08/31 06:43:16;;;;;;;14.30;9.27;;;;;;;17.84;46.73;93936.13;4972991;28;20053;-78
2021/08/31 06:45:44;;;;;;;13.15;8.25;;;;;;;18.20;46.41;93953.72;4973122;28;20046;-77
2021/08/31 06:48:09;;;;;;;15.13;9.88;;;;;;;17.95;47.13;93950.56;4974877;28;20619;-77
2021/08/31 06:50:34;;;;;;;20.15;9.68;;;;;;;18.08;46.98;93956.56;4975519;28;20186;-77
2021/08/31 06:53:00;;;;;;;13.43;9.88;;;;;;;18.12;46.12;93940.47;4971457;28;20026;-78
2021/08/31 06:55:26;;;;;;;16.48;9.05;;;;;;;18.14;45.67;93938.22;4969752;28;20038;-78
2021/08/31 06:57:51;;;;;;;12.27;9.18;;;;;;;18.45;46.54;93954.13;4973712;28;20192;-77
2021/08/31 07:00:17;;;;;;;15.15;9.27;;;;;;;18.48;46.06;93958.81;4975064;28;20037;-77
2021/08/31 07:02:42;;;;;;;9.85;8.68;;;;;;;18.03;46.48;93938.81;4969900;28;20035;-77
2021/08/31 07:05:09;;;;;;;19.35;9.40;;;;;;;18.30;46.28;93949.66;4974627;28;20037;-77
2021/08/31 07:07:34;;;;;;;10.25;8.57;;;;;;;18.32;45.83;93966.22;4971261;28;20720;-77
2021/08/31 07:10:00;;;;;;;18.52;8.20;;;;;;;18.44;44.48;93920.28;4974709;28;20079;-77
2021/08/31 07:12:25;;;;;;;13.23;8.07;;;;;;;18.80;45.03;93968.22;4971363;28;20282;-78
2021/08/31 07:14:52;;;;;;;10.60;7.65;;;;;;;18.75;44.03;93963.16;4973589;28;20046;-79
2021/08/31 07:17:17;;;;;;;14.57;7.00;;;;;;;18.89;44.52;93967.97;4971572;28;20101;-77
2021/08/31 07:19:43;;;;;;;8.57;6.38;;;;;;;19.01;44.36;93969.72;4971344;28;20477;-77
2021/08/31 07:22:09;;;;;;;13.00;7.50;;;;;;;19.12;44.37;93967.94;4971058;28;20485;-77
2021/08/31 07:24:34;;;;;;;10.93;6.60;;;;;;;19.24;43.22;93956.94;4969880;28;20413;-77
2021/08/31 07:27:00;;;;;;;12.30;7.20;;;;;;;19.33;42.01;93966.31;4974117;28;20546;-79
2021/08/31 07:29:25;;;;;;;10.43;6.25;;;;;;;19.27;41.96;93973.16;4972577;28;20528;-78
2021/08/31 07:31:52;;;;;;;8.75;6.55;;;;;;;19.28;43.37;93976.66;4971375;28;20061;-78
2021/08/31 07:34:17;;;;;;;13.30;7.53;;;;;;;19.20;43.10;93966.91;4973347;28;20052;-77
2021/08/31 07:36:43;;;;;;;9.23;5.97;;;;;;;19.21;42.88;93957.69;4972528;28;20425;-77
2021/08/31 07:39:09;;;;;;;9.77;7.30;;;;;;;19.30;43.06;93952.81;4973107;28;20042;-78
2021/08/31 07:41:34;;;;;;;9.98;6.20;;;;;;;19.50;43.45;93970.44;4971206;28;20537;-78
2021/08/31 07:44:01;;;;;;;10.60;5.60;;;;;;;19.50;42.24;93948.88;4972473;28;20058;-78
2021/08/31 07:46:27;;;;;;;8.57;5.85;;;;;;;19.72;42.66;93964.16;4974310;28;20058;-79
2021/08/31 07:48:53;;;;;;;12.90;6.45;;;;;;;19.72;41.36;93974.19;4972927;28;20030;-78
2021/08/31 07:51:19;;;;;;;9.60;6.72;;;;;;;19.82;42.54;93961.97;4976100;28;20055;-80
2021/08/31 07:53:44;;;;;;;9.90;6.07;;;;;;;19.86;42.41;93960.09;4976358;28;20100;-79
2021/08/31 07:56:10;;;;;;;9.52;6.45;;;;;;;20.03;41.45;93962.22;4976351;28;21014;-77
2021/08/31 07:58:36;;;;;;;13.77;6.45;;;;;;;20.06;41.45;93970.34;4976942;28;20026;-77
2021/08/31 08:01:03;;;;;;;10.38;5.78;;;;;;;20.09;41.15;93963.47;4969142;28;20444;-77
2021/08/31 08:03:28;;;;;;;8.02;5.47;;;;;;;20.13;41.63;93961.56;4971853;28;20049;-77
2021/08/31 08:05:54;;;;;;;10.23;6.38;;;;;;;20.20;41.34;93968.97;4976906;28;20038;-78
2021/08/31 08:08:19;;;;;;;7.07;5.85;;;;;;;20.13;40.91;93954.25;4973183;28;20137;-77
2021/08/31 08:10:44;;;;;;;8.25;5.82;;;;;;;20.26;40.68;93962.88;4974786;28;20054;-77
2021/08/31 08:13:10;;;;;;;9.20;5.88;;;;;;;20.23;40.26;93955.53;4972865;28;20512;-77
2021/08/31 08:15:35;;;;;;;9.20;6.40;;;;;;;20.25;40.70;93953.22;4975165;28;20038;-77
2021/08/31 08:18:01;;;;;;;8.35;6.13;;;;;;;20.30;40.78;93957.50;4974655;28;20045;-77
2021/08/31 08:20:27;;;;;;;12.13;5.40;;;;;;;20.41;40.59;93945.66;4971349;28;20588;-78
2021/08/31 08:22:53;;;;;;;9.27;5.78;;;;;;;20.29;40.67;93937.81;4975432;28;20100;-78
2021/08/31 08:25:18;;;;;;;10.82;5.90;;;;;;;20.29;40.73;93939.78;4972594;28;20038;-78
2021/08/31 08:27:44;;;;;;;12.65;6.18;;;;;;;20.55;41.15;93953.91;4974520;28;20031;-78
2021/08/31 08:30:10;;;;;;;16.95;7.20;;;;;;;20.51;40.28;93946.91;4974369;28;20488;-77
2021/08/31 08:32:36;;;;;;;13.50;6.75;;;;;;;20.53;40.43;93956.19;4976525;28;20445;-78
2021/08/31 08:35:02;;;;;;;10.80;6.90;;;;;;;20.63;39.16;93929.66;4959896;28;20011;-79
2021/08/31 08:37:27;;;;;;;11.38;7.05;;;;;;;20.67;40.26;93931.25;4993432;28;20085;-78
2021/08/31 08:39:53;;;;;;;12.07;6.57;;;;;;;20.58;40.30;93926.13;4968887;28;20489;-77
2021/08/31 08:42:19;;;;;;;7.03;5.88;;;;;;;20.80;40.37;93937.91;4970296;28;20125;-77
2021/08/31 08:44:44;;;;;;;16.20;6.57;;;;;;;20.75;40.64;93932.84;4973943;28;20042;-78
2021/08/31 08:47:10;;;;;;;8.20;6.10;;;;;;;20.71;39.98;93931.25;4974109;28;20718;-78
2021/08/31 08:49:36;;;;;;;16.92;6.65;;;;;;;20.84;40.03;93929.81;4977534;28;20521;-78
2021/08/31 08:52:02;;;;;;;9.15;6.40;;;;;;;21.07;39.28;93935.03;4964876;28;20046;-77
2021/08/31 08:54:28;;;;;;;10.40;5.57;;;;;;;20.97;40.02;93921.06;4978201;28;20034;-77
2021/08/31 08:56:55;;;;;;;8.25;5.85;;;;;;;21.17;40.75;93937.78;4975453;28;20044;-77
2021/08/31 08:59:21;;;;;;;11.50;6.00;;;;;;;21.16;39.57;93911.94;4975896;28;20121;-77
2021/08/31 09:01:54;;;;;;;6.72;5.65;;;;;;;21.18;38.79;93930.47;4976776;28;20032;-77
2021/08/31 09:04:44;;;;;;;11.30;6.05;;;;;;;21.13;38.46;93931.59;4978339;28;20038;-77
2021/08/31 09:07:22;;;;;;;20.42;6.15;;;;;;;21.20;38.62;93920.84;4970395;28;20050;-79
2021/08/31 09:09:49;;;;;;;9.75;6.07;;;;;;;21.14;40.47;93908.81;4973195;28;20057;-79
2021/08/31 09:12:33;;;;;;;11.52;5.50;;;;;;;21.01;38.52;93905.66;4971052;28;20069;-77
2021/08/31 09:15:19;;;;;;;10.30;5.75;;;;;;;21.29;38.44;93915.84;4987806;28;20882;-78
2021/08/31 09:18:07;;;;;;;8.00;5.28;;;;;;;21.38;38.52;93916.28;4975331;28;20049;-77
2021/08/31 09:20:38;;;;;;;7.47;5.47;;;;;;;21.40;38.32;93911.28;4968856;28;20045;-77
2021/08/31 09:23:05;;;;;;;10.18;6.05;;;;;;;21.43;38.16;93915.94;4973981;28;20484;-78
2021/08/31 09:25:36;;;;;;;10.10;5.75;;;;;;;21.55;37.63;93911.38;4975319;28;20034;-78
2021/08/31 09:28:02;;;;;;;11.50;6.45;;;;;;;21.42;37.83;93892.72;4977538;28;20404;-78
2021/08/31 09:30:30;;;;;;;8.88;5.45;;;;;;;21.57;37.11;93914.47;4974275;28;20074;-78
2021/08/31 09:33:07;;;;;;;10.88;5.75;;;;;;;21.53;37.07;93902.81;4976577;28;20066;-77
2021/08/31 09:35:37;;;;;;;7.20;6.00;;;;;;;21.60;37.28;93892.06;4966133;28;20061;-78
2021/08/31 09:38:08;;;;;;;11.88;5.38;;;;;;;21.72;37.09;93906.03;4974113;28;20145;-77
2021/08/31 09:40:48;;;;;;;8.18;5.75;;;;;;;21.73;35.85;93898.69;4975583;28;20360;-78
2021/08/31 09:43:21;;;;;;;7.70;5.70;;;;;;;21.84;36.76;93886.75;4974170;28;20050;-78
2021/08/31 09:45:49;;;;;;;8.75;4.65;;;;;;;21.90;36.11;93900.69;4971259;28;20112;-78
2021/08/31 09:48:17;;;;;;;6.50;4.75;;;;;;;21.69;37.02;93895.19;4973077;28;20039;-78
2021/08/31 09:50:55;;;;;;;7.75;4.40;;;;;;;21.65;36.31;93878.19;4968610;28;20077;-78
2021/08/31 09:53:25;;;;;;;9.02;5.60;;;;;;;21.71;36.73;93888.22;4975394;28;20489;-79
2021/08/31 09:56:13;;;;;;;13.18;5.70;;;;;;;21.74;37.32;93873.97;4972469;28;20042;-79
2021/08/31 09:58:44;;;;;;;6.60;5.03;;;;;;;21.94;36.50;93868.97;4973798;28;20046;-78
2021/08/31 10:01:10;;;;;;;7.68;5.60;;;;;;;22.04;37.21;93872.88;4970840;28;20038;-79
2021/08/31 10:03:38;;;;;;;10.93;4.82;;;;;;;22.04;37.50;93862.81;4976863;28;20081;-78
2021/08/31 10:06:04;;;;;;;6.90;5.47;;;;;;;21.85;37.03;93871.28;4987101;28;20392;-78
2021/08/31 10:08:35;;;;;;;8.85;5.75;;;;;;;22.02;36.54;93872.47;4968819;28;20047;-78
2021/08/31 10:11:02;;;;;;;8.52;5.43;;;;;;;21.88;36.74;93860.47;4970819;28;20140;-77
2021/08/31 10:13:29;;;;;;;9.70;5.43;;;;;;;21.95;36.37;93854.25;4976305;28;20096;-77
2021/08/31 10:15:56;;;;;;;11.55;5.20;;;;;;;22.01;36.71;93847.31;4972468;28;20505;-78
2021/08/31 10:18:24;;;;;;;7.72;5.03;;;;;;;22.21;38.06;93853.97;4974914;28;20124;-77
2021/08/31 10:20:52;;;;;;;11.15;5.50;;;;;;;22.40;38.50;93852.03;4974784;28;20050;-77
2021/08/31 10:23:32;;;;;;;13.18;6.50;;;;;;;22.17;36.74;93817.94;4975507;28;20022;-77
2021/08/31 10:26:22;;;;;;;9.15;6.75;;;;;;;22.29;36.42;93847.38;4972404;28;20026;-77
2021/08/31 10:28:48;;;;;;;7.30;6.05;;;;;;;22.35;37.49;93839.63;4974889;28;20137;-78
2021/08/31 10:31:28;;;;;;;8.85;6.53;;;;;;;22.49;36.78;93841.56;4973654;28;20085;-79
2021/08/31 10:33:53;;;;;;;13.07;6.00;;;;;;;22.34;36.43;93840.81;4974606;28;20093;-77
2021/08/31 10:36:35;;;;;;;8.55;5.78;;;;;;;22.23;36.94;93829.97;4970743;28;20090;-77
2021/08/31 10:39:03;;;;;;;9.05;5.90;;;;;;;22.43;37.69;93824.19;4977355;28;20046;-78
2021/08/31 10:41:43;;;;;;;8.80;5.60;;;;;;;22.56;37.03;93844.28;4969914;28;20056;-77
2021/08/31 10:44:33;;;;;;;9.55;5.32;;;;;;;22.53;36.53;93828.81;4985864;28;20029;-77
2021/08/31 10:46:58;;;;;;;10.98;6.03;;;;;;;22.61;36.56;93836.56;4966688;28;20042;-78
2021/08/31 10:49:24;;;;;;;8.30;5.90;;;;;;;22.54;36.29;93833.84;4961562;28;20044;-78
2021/08/31 10:52:02;;;;;;;7.45;5.28;;;;;;;22.67;36.86;93824.16;4971650;28;20074;-77
2021/08/31 10:54:46;;;;;;;13.13;6.45;;;;;;;22.86;36.52;93819.47;4986622;28;20038;-78
2021/08/31 10:57:36;;;;;;;7.68;5.65;;;;;;;23.08;36.71;93824.47;4974029;28;20050;-77
2021/08/31 11:00:25;;;;;;;6.40;4.65;;;;;;;23.17;35.45;93813.22;4972898;28;20109;-78
2021/08/31 11:02:59;;;;;;;10.55;5.63;;;;;;;23.11;36.00;93818.28;4955219;28;20046;-78
2021/08/31 11:05:28;;;;;;;8.50;5.65;;;;;;;23.09;36.10;93823.31;4974151;28;20051;-78
2021/08/31 11:08:02;;;;;;;10.50;5.93;;;;;;;22.84;35.23;93824.50;4975627;28;20038;-78
2021/08/31 11:10:32;;;;;;;9.85;6.38;;;;;;;22.85;35.26;93818.69;4950899;28;20122;-78
2021/08/31 11:13:11;;;;;;;8.40;4.85;;;;;;;22.87;35.71;93821.06;4970401;28;20109;-78
2021/08/31 11:15:36;;;;;;;11.18;5.28;;;;;;;22.97;36.28;93810.19;4970492;28;20422;-78
2021/08/31 11:18:10;;;;;;;7.75;4.95;;;;;;;23.04;35.62;93809.38;4977142;28;20097;-78
2021/08/31 11:20:38;;;;;;;9.75;5.53;;;;;;;23.07;35.86;93809.38;4973748;28;20504;-78
2021/08/31 11:23:22;;;;;;;7.53;5.00;;;;;;;23.14;35.58;93808.56;4975421;28;20133;-78
2021/08/31 11:25:48;;;;;;;9.80;5.22;;;;;;;23.32;39.87;93813.97;4978078;28;20035;-77
2021/08/31 11:28:33;;;;;;;8.75;5.22;;;;;;;23.32;33.73;93803.09;4979426;28;20042;-78
2021/08/31 11:31:12;;;;;;;5.93;4.57;;;;;;;23.32;33.91;93809.28;4974710;28;21184;-78
2021/08/31 11:33:40;;;;;;;7.05;4.55;;;;;;;23.47;34.63;93810.00;4979638;28;20121;-78